Time;durP1;ratioP1;P1;durP2;ratioP2;P2;SDS_P1;SDS_P2;PMS_P1;PMS_P2;Temp;Humidity;BMP_temperature;BMP_pressure;BME280_temperature;BME280_humidity;BME280_pressure;Samples;Min_cycle;Max_cycle;Signal;HPM_P1;HPM_P2
2021/06/17 04:40:19;;;;;;;11.93;6.65;;;;;;;26.19;48.95;98947.89;1786558;80;21082;-52
2021/06/17 04:42:47;;;;;;;10.45;6.15;;;;;;;26.25;48.61;98951.27;1787810;80;21019;-53
2021/06/17 04:45:15;;;;;;;11.38;6.30;;;;;;;26.37;47.86;98950.94;1763644;80;21031;-52
2021/06/17 04:47:48;;;;;;;15.50;6.37;;;;;;;26.44;47.80;98954.05;1788006;79;21051;-54
2021/06/17 04:50:16;;;;;;;13.95;6.90;;;;;;;26.60;47.49;98945.53;1783952;78;21036;-54
2021/06/17 04:52:57;;;;;;;11.95;6.58;;;;;;;26.67;47.41;98945.34;1781524;80;20964;-54
2021/06/17 04:55:25;;;;;;;10.65;5.80;;;;;;;26.66;47.55;98937.52;1779511;80;21019;-54
2021/06/17 04:57:53;;;;;;;9.68;6.47;;;;;;;26.78;47.71;98947.75;1780686;80;21542;-54
2021/06/17 05:00:21;;;;;;;10.65;6.33;;;;;;;26.96;46.65;98940.76;1780904;80;21028;-55
2021/06/17 05:02:49;;;;;;;11.85;6.33;;;;;;;27.09;46.72;98944.48;1803615;79;21519;-53
2021/06/17 05:05:17;;;;;;;9.80;5.67;;;;;;;27.39;46.71;98946.84;1789380;79;21048;-51
2021/06/17 05:13:00;;;;;;;11.00;5.62;;;;;;;28.16;43.61;98943.11;1810903;78;20999;-54
2021/06/17 05:15:27;;;;;;;9.23;5.17;;;;;;;28.05;44.24;98953.51;1792611;78;20986;-57
2021/06/17 05:17:55;;;;;;;13.35;5.70;;;;;;;28.14;43.99;98947.50;1808377;79;21049;-50
2021/06/17 05:20:26;;;;;;;10.03;5.40;;;;;;;28.22;43.47;98947.27;1791851;79;21018;-54
2021/06/17 05:22:52;;;;;;;8.75;5.30;;;;;;;28.20;43.19;98953.55;1789512;78;21097;-54
2021/06/17 05:25:21;;;;;;;14.55;5.75;;;;;;;28.13;43.25;98948.63;1756534;82;21450;-56
2021/06/17 05:27:48;;;;;;;9.58;5.20;;;;;;;28.11;43.48;98940.03;1782386;78;20963;-55
2021/06/17 05:30:18;;;;;;;10.05;5.30;;;;;;;28.22;43.73;98944.00;1785699;79;21008;-53
2021/06/17 05:32:45;;;;;;;9.73;5.20;;;;;;;28.27;43.74;98943.83;1784070;78;21018;-54
2021/06/17 05:35:14;;;;;;;9.48;5.05;;;;;;;28.32;43.50;98956.42;1787064;80;21048;-54
2021/06/17 05:37:41;;;;;;;7.35;4.92;;;;;;;28.50;43.34;98963.41;1786499;80;21497;-54
2021/06/17 05:40:10;;;;;;;9.58;5.30;;;;;;;28.73;42.85;98968.58;1778485;80;21038;-54
2021/06/17 05:42:37;;;;;;;7.55;4.53;;;;;;;28.93;42.20;98973.89;1778540;81;21505;-54
2021/06/17 05:45:07;;;;;;;9.23;4.30;;;;;;;29.04;41.69;98969.12;1778364;81;21533;-54
2021/06/17 05:47:35;;;;;;;10.68;5.08;;;;;;;29.14;41.40;98974.75;1778672;81;21454;-54
2021/06/17 05:50:04;;;;;;;6.90;4.62;;;;;;;29.19;40.63;98982.71;1781152;80;21003;-54
2021/06/17 05:52:32;;;;;;;7.37;4.22;;;;;;;29.05;40.66;98976.14;1778675;81;20960;-54
2021/06/17 05:54:59;;;;;;;11.15;4.80;;;;;;;28.81;41.35;98985.40;1778569;81;21510;-53
2021/06/17 05:57:27;;;;;;;7.15;4.33;;;;;;;28.78;40.95;98988.75;1778575;81;20995;-54
2021/06/17 05:59:54;;;;;;;10.85;4.72;;;;;;;28.72;41.27;98985.41;1778426;81;20979;-54
2021/06/17 06:02:25;;;;;;;12.15;5.50;;;;;;;28.74;41.08;98989.18;1778594;81;21019;-55
2021/06/17 06:04:52;;;;;;;9.98;4.40;;;;;;;28.52;41.86;99001.05;1783900;79;20972;-52
2021/06/17 06:07:20;;;;;;;9.70;4.20;;;;;;;28.44;42.35;98991.79;1807660;79;20963;-57
2021/06/17 06:09:48;;;;;;;7.45;3.80;;;;;;;28.50;42.24;98993.23;1770898;79;21076;-48
2021/06/17 06:12:16;;;;;;;7.12;3.90;;;;;;;28.45;41.14;99003.46;1764602;81;21023;-49
2021/06/17 06:14:44;;;;;;;10.98;4.33;;;;;;;28.37;41.79;98998.27;1782935;79;21007;-48
2021/06/17 06:17:11;;;;;;;9.45;4.33;;;;;;;28.41;41.76;99001.94;1768155;79;20961;-50
2021/06/17 06:19:39;;;;;;;7.03;4.37;;;;;;;28.31;41.89;99006.30;1751511;79;21509;-53
2021/06/17 06:22:08;;;;;;;9.50;4.45;;;;;;;28.26;41.87;99003.20;1773565;79;20997;-54
2021/06/17 06:24:37;;;;;;;9.15;3.92;;;;;;;28.31;41.50;99003.59;1760568;81;22128;-54
2021/06/17 06:27:06;;;;;;;8.28;3.90;;;;;;;28.37;42.11;98995.56;1760582;81;21550;-54
2021/06/17 06:29:34;;;;;;;7.40;4.03;;;;;;;28.33;41.67;99009.54;1760657;81;21032;-57
2021/06/17 06:32:02;;;;;;;6.50;4.17;;;;;;;28.30;42.30;99004.16;1761309;79;20993;-59
2021/06/17 06:34:30;;;;;;;6.97;4.10;;;;;;;28.35;42.00;98997.02;1760980;81;21499;-47
2021/06/17 06:36:57;;;;;;;6.78;3.70;;;;;;;28.34;41.79;98995.42;1761229;81;21029;-47
2021/06/17 06:39:25;;;;;;;6.25;3.95;;;;;;;28.24;41.73;98995.16;1797859;78;21062;-43
2021/06/17 06:41:52;;;;;;;5.83;4.25;;;;;;;28.05;42.32;98995.50;1818201;78;21023;-48
2021/06/17 06:44:22;;;;;;;9.63;4.22;;;;;;;27.87;41.93;99008.78;1819016;79;21003;-44
2021/06/17 06:46:51;;;;;;;9.80;4.60;;;;;;;27.60;42.52;99000.39;1819111;79;21051;-46
2021/06/17 06:49:18;;;;;;;8.13;4.03;;;;;;;27.61;43.90;99001.98;1792746;79;20961;-47
2021/06/17 06:51:46;;;;;;;8.90;3.98;;;;;;;27.67;43.82;98988.52;1783552;79;21530;-47
2021/06/17 06:54:18;;;;;;;9.83;4.20;;;;;;;27.73;44.13;98982.66;1714614;83;21036;-51
2021/06/17 06:56:43;;;;;;;7.00;3.67;;;;;;;27.74;43.54;98986.95;1714364;83;21079;-51
2021/06/17 06:59:10;;;;;;;8.90;4.20;;;;;;;27.72;42.30;98993.81;1718032;82;21024;-45
2021/06/17 07:01:38;;;;;;;9.13;3.90;;;;;;;27.67;42.83;98996.09;1714307;84;21043;-55
2021/06/17 07:04:06;;;;;;;9.45;3.77;;;;;;;27.66;42.84;98989.08;1684260;85;21114;-44
2021/06/17 07:06:34;;;;;;;11.30;4.53;;;;;;;27.57;43.53;98988.27;1714352;84;21110;-44
2021/06/17 07:09:04;;;;;;;6.83;3.98;;;;;;;27.49;43.00;99006.09;1685805;85;21531;-45
2021/06/17 07:11:31;;;;;;;9.03;3.65;;;;;;;27.46;42.74;99001.86;1714756;84;21047;-55
2021/06/17 07:14:00;;;;;;;6.17;3.70;;;;;;;27.46;43.04;98991.03;1684499;85;21665;-53
2021/06/17 07:16:27;;;;;;;5.75;3.45;;;;;;;27.57;42.27;99002.36;1714549;84;20975;-47
2021/06/17 07:18:55;;;;;;;7.15;3.60;;;;;;;27.51;42.43;99013.34;1684198;85;21603;-52
2021/06/17 07:21:23;;;;;;;5.53;3.50;;;;;;;27.43;41.97;99010.06;1714294;84;21050;-60
2021/06/17 07:23:51;;;;;;;5.70;3.55;;;;;;;27.35;42.25;99002.70;1684463;85;21040;-50
2021/06/17 07:26:20;;;;;;;6.50;3.22;;;;;;;27.36;41.67;99019.77;1714265;84;21035;-48
2021/06/17 07:28:48;;;;;;;7.15;3.47;;;;;;;27.33;42.06;99008.20;1684596;85;21059;-54
2021/06/17 07:31:17;;;;;;;11.22;3.92;;;;;;;27.24;42.40;99017.64;1714195;84;21463;-51
2021/06/17 07:33:44;;;;;;;6.30;3.80;;;;;;;27.19;42.38;99021.86;1714554;84;21039;-51
2021/06/17 07:36:14;;;;;;;5.12;3.50;;;;;;;27.19;42.30;99013.19;1684476;85;21087;-49
2021/06/17 07:38:42;;;;;;;6.00;3.25;;;;;;;27.29;42.70;99016.70;1714827;84;21600;-51
2021/06/17 07:41:09;;;;;;;5.70;3.50;;;;;;;27.33;42.07;99010.36;1676669;85;21044;-53
2021/06/17 07:43:37;;;;;;;10.90;3.55;;;;;;;27.30;43.53;99030.47;1688237;84;21089;-50
2021/06/17 07:46:05;;;;;;;5.78;3.33;;;;;;;27.13;43.32;99029.88;1730554;82;21045;-48
2021/06/17 07:48:33;;;;;;;9.23;3.75;;;;;;;26.94;44.40;99021.95;1730149;83;21042;-53
2021/06/17 07:51:00;;;;;;;7.30;3.70;;;;;;;26.84;45.54;99024.92;1730004;83;21022;-49
2021/06/17 07:53:28;;;;;;;8.78;4.03;;;;;;;26.76;45.38;99034.59;1730297;83;20999;-50
2021/06/17 07:55:55;;;;;;;5.67;3.52;;;;;;;26.60;45.21;99053.66;1729870;83;21038;-47
2021/06/17 07:58:23;;;;;;;7.78;3.70;;;;;;;26.39;46.14;99031.73;1754328;79;21008;-50
2021/06/17 08:00:51;;;;;;;13.30;4.22;;;;;;;26.25;46.39;99035.82;1767892;79;20996;-49
2021/06/17 08:03:18;;;;;;;9.28;4.33;;;;;;;26.16;47.53;99022.82;1733850;83;21047;-48
2021/06/17 08:05:46;;;;;;;8.45;4.17;;;;;;;26.11;47.56;99023.73;1717033;83;21028;-54
2021/06/17 08:08:14;;;;;;;6.08;3.80;;;;;;;26.07;47.81;99024.64;1720457;82;21059;-51
2021/06/17 08:10:42;;;;;;;7.40;3.75;;;;;;;26.01;49.26;99022.61;1754589;82;21005;-55
2021/06/17 08:13:09;;;;;;;4.60;3.72;;;;;;;26.02;49.40;99028.25;1754427;82;21042;-59
2021/06/17 08:15:37;;;;;;;8.53;4.00;;;;;;;25.88;49.37;99028.86;1751370;82;21498;-53
2021/06/17 08:18:06;;;;;;;9.08;4.03;;;;;;;25.71;48.94;99037.56;1749608;82;21071;-53
2021/06/17 08:20:34;;;;;;;8.03;4.17;;;;;;;25.62;50.45;99022.61;1724576;82;21503;-53
2021/06/17 08:23:03;;;;;;;9.13;4.05;;;;;;;25.66;51.72;99032.27;1690296;84;21075;-49
2021/06/17 08:25:32;;;;;;;7.97;3.83;;;;;;;25.68;50.74;99038.16;1687219;85;21507;-54
2021/06/17 08:28:04;;;;;;;9.70;4.03;;;;;;;25.61;50.48;99026.42;1687872;85;21065;-56
2021/06/17 08:30:34;;;;;;;5.85;3.70;;;;;;;25.58;51.11;99031.09;1711562;82;21070;-48
2021/06/17 08:33:02;;;;;;;5.50;3.80;;;;;;;25.62;50.56;99024.52;1717999;83;21044;-46
2021/06/17 08:35:30;;;;;;;8.53;4.42;;;;;;;25.64;51.24;99023.69;1717040;83;21091;-46
2021/06/17 08:37:57;;;;;;;8.38;4.10;;;;;;;25.60;51.52;99030.78;1714799;84;21071;-47
2021/06/17 08:40:29;;;;;;;6.47;4.03;;;;;;;25.60;51.45;99028.08;1696059;82;21031;-49
2021/06/17 08:42:58;;;;;;;6.58;3.95;;;;;;;25.65;52.62;99012.58;1662162;84;21054;-49
2021/06/17 08:45:26;;;;;;;9.87;3.80;;;;;;;25.83;51.52;99035.72;1708426;83;21055;-51
2021/06/17 08:47:54;;;;;;;7.10;3.83;;;;;;;25.85;49.50;99028.10;1695972;83;21087;-49
2021/06/17 08:50:22;;;;;;;8.93;4.12;;;;;;;25.84;50.24;99048.91;1709573;83;20983;-51
2021/06/17 08:52:49;;;;;;;5.58;3.58;;;;;;;25.80;50.12;99029.00;1691720;83;20995;-54
2021/06/17 08:55:20;;;;;;;7.83;3.75;;;;;;;25.75;50.36;99025.62;1690390;85;21090;-52
2021/06/17 08:57:50;;;;;;;5.90;3.77;;;;;;;25.74;50.85;99023.47;1748392;80;21034;-51
2021/06/17 09:00:27;;;;;;;5.60;3.72;;;;;;;25.85;50.07;99032.95;1749210;81;21072;-52
2021/06/17 09:03:04;;;;;;;9.93;3.60;;;;;;;25.93;49.66;99044.95;1741620;82;20984;-51
2021/06/17 09:05:34;;;;;;;9.33;3.98;;;;;;;25.92;49.64;99038.75;1719412;83;20998;-52
2021/06/17 09:08:02;;;;;;;8.95;3.95;;;;;;;26.01;50.95;99024.52;1742043;82;20967;-52
2021/06/17 09:10:30;;;;;;;7.12;3.50;;;;;;;26.14;50.29;99046.06;1749481;80;21038;-50
2021/06/17 09:13:02;;;;;;;7.17;3.50;;;;;;;26.25;48.92;99022.31;1747600;82;21054;-50
2021/06/17 09:15:39;;;;;;;9.25;3.72;;;;;;;26.21;48.65;99028.90;1742035;82;21075;-49
2021/06/17 09:18:26;;;;;;;7.53;3.98;;;;;;;26.20;49.29;99027.84;1728068;82;21046;-51
2021/06/17 09:21:06;;;;;;;6.37;3.80;;;;;;;26.28;48.86;99045.23;1739527;80;21012;-61
2021/06/17 09:23:41;;;;;;;10.68;3.72;;;;;;;26.27;48.68;99032.28;1775390;81;21012;-50
2021/06/17 09:26:13;;;;;;;5.85;3.45;;;;;;;26.28;48.73;99035.78;1775671;81;21063;-55
2021/06/17 09:29:05;;;;;;;7.92;3.60;;;;;;;26.36;49.23;99030.98;1704447;84;21080;-57
2021/06/17 09:31:38;;;;;;;6.62;3.37;;;;;;;26.48;49.50;99038.80;1665111;85;21147;-50
2021/06/17 09:34:06;;;;;;;4.75;3.58;;;;;;;26.60;48.40;99038.79;1679434;83;21378;-54
2021/06/17 09:36:35;;;;;;;10.43;3.72;;;;;;;26.64;49.15;99028.41;1678777;83;21026;-58
2021/06/17 09:39:15;;;;;;;10.00;3.75;;;;;;;26.76;46.27;99046.77;1674635;83;21023;-46
2021/06/17 09:41:54;;;;;;;7.40;3.60;;;;;;;26.83;46.32;99047.11;1728916;81;21602;-54
2021/06/17 09:44:37;;;;;;;5.20;3.72;;;;;;;26.94;46.17;99046.30;1726142;81;21059;-50
2021/06/17 09:47:21;;;;;;;4.10;3.70;;;;;;;26.92;45.63;99041.20;1687878;84;21019;-59
2021/06/17 09:49:54;;;;;;;4.78;3.45;;;;;;;26.86;45.96;99045.71;1721062;81;21486;-60
2021/06/17 09:52:39;;;;;;;7.12;3.62;;;;;;;26.93;47.05;99030.63;1626583;83;111461;-54
2021/06/17 09:55:08;;;;;;;6.58;3.70;;;;;;;27.13;46.82;99029.33;1657275;86;21070;-51
2021/06/17 09:57:39;;;;;;;6.55;3.83;;;;;;;27.25;45.86;99034.14;1659820;85;21077;-50
2021/06/17 10:00:10;;;;;;;6.47;3.70;;;;;;;27.25;44.49;99046.31;1658105;86;21105;-52
2021/06/17 10:02:40;;;;;;;6.40;3.80;;;;;;;27.16;44.67;99031.95;1609826;89;21043;-55
2021/06/17 10:05:22;;;;;;;6.17;3.50;;;;;;;27.21;45.16;99032.61;1649966;87;21129;-53
2021/06/17 10:07:50;;;;;;;8.28;3.72;;;;;;;27.30;45.09;99029.94;1641172;86;21004;-53
2021/06/17 10:10:22;;;;;;;7.92;3.80;;;;;;;27.28;44.58;99040.27;1609628;87;21553;-49
2021/06/17 10:12:50;;;;;;;6.83;4.22;;;;;;;27.16;45.24;99025.98;1659176;85;21487;-49
2021/06/17 10:15:19;;;;;;;7.35;3.80;;;;;;;27.11;46.26;99026.67;1669939;85;21079;-60
2021/06/17 10:17:51;;;;;;;4.60;3.58;;;;;;;27.09;46.23;99026.99;1649040;86;21326;-65
2021/06/17 10:20:18;;;;;;;5.62;3.85;;;;;;;27.04;46.00;99017.63;1617195;87;21006;-51
2021/06/17 10:22:46;;;;;;;9.60;3.98;;;;;;;26.99;46.14;99020.47;1630418;86;21037;-56
2021/06/17 10:25:24;;;;;;;5.55;3.60;;;;;;;26.93;46.16;99025.77;1629325;86;21151;-55
2021/06/17 10:27:57;;;;;;;7.97;3.92;;;;;;;26.81;47.02;99027.70;1651239;86;21469;-45
2021/06/17 10:30:39;;;;;;;5.80;3.87;;;;;;;26.83;47.61;99021.98;1608941;89;21154;-52
2021/06/17 10:33:07;;;;;;;4.83;3.58;;;;;;;26.99;47.69;99018.56;1589023;87;21113;-54
2021/06/17 10:35:36;;;;;;;8.35;3.65;;;;;;;27.23;44.78;99020.91;1639466;85;21051;-50
2021/06/17 10:38:05;;;;;;;9.65;4.17;;;;;;;27.35;44.93;99013.53;1639490;87;21082;-50
2021/06/17 10:40:35;;;;;;;8.88;3.50;;;;;;;27.49;45.29;99016.13;1612645;87;21050;-52
2021/06/17 10:43:07;;;;;;;7.12;3.47;;;;;;;27.57;45.12;99011.84;1633981;86;21082;-52
2021/06/17 10:45:47;;;;;;;7.85;3.80;;;;;;;27.61;44.81;99009.54;1624818;87;21017;-60
2021/06/17 10:48:26;;;;;;;7.15;4.03;;;;;;;27.63;44.64;99056.04;1603146;89;21063;-45
2021/06/17 10:51:05;;;;;;;6.42;3.70;;;;;;;27.46;44.63;99021.60;1556093;89;21641;-50
2021/06/17 10:53:44;;;;;;;7.17;3.80;;;;;;;27.28;43.51;99022.67;1600344;89;21122;-55
2021/06/17 10:56:26;;;;;;;5.33;3.60;;;;;;;27.36;44.01;99013.80;1600765;87;26345;-54
2021/06/17 10:58:55;;;;;;;6.03;3.72;;;;;;;27.56;44.56;99016.45;1638175;87;21077;-57
2021/06/17 11:01:36;;;;;;;5.62;3.62;;;;;;;27.67;43.39;99006.12;1647329;86;21076;-55
2021/06/17 11:04:25;;;;;;;5.97;3.75;;;;;;;27.62;43.72;99010.33;1646765;87;21099;-54
2021/06/17 11:07:05;;;;;;;6.42;3.40;;;;;;;27.61;44.07;99016.87;1641958;87;21595;-56
2021/06/17 11:09:45;;;;;;;5.15;3.70;;;;;;;27.69;43.56;99018.25;1647022;86;21635;-52
2021/06/17 11:12:25;;;;;;;12.53;3.60;;;;;;;27.74;42.28;99007.83;1630979;87;21558;-55
2021/06/17 11:14:58;;;;;;;9.63;4.22;;;;;;;27.86;43.02;99007.20;1629042;86;22283;-56
2021/06/17 11:17:33;;;;;;;5.62;3.30;;;;;;;28.05;43.06;99003.63;1648373;86;21547;-57
2021/06/17 11:20:21;;;;;;;6.03;3.72;;;;;;;28.19;42.17;99006.16;1647946;87;21531;-56
2021/06/17 11:22:59;;;;;;;5.03;3.52;;;;;;;28.18;42.72;99006.72;1646944;86;21083;-53
2021/06/17 11:25:31;;;;;;;6.78;3.92;;;;;;;28.14;41.16;99000.91;1645858;87;21019;-53
2021/06/17 11:28:14;;;;;;;4.28;3.33;;;;;;;27.99;41.10;98998.14;1648208;87;21295;-57
2021/06/17 11:30:53;;;;;;;6.87;3.95;;;;;;;27.90;40.73;99023.86;1648207;87;21502;-52
2021/06/17 11:33:33;;;;;;;9.20;3.72;;;;;;;27.82;40.62;98990.80;1634528;86;21076;-48
2021/06/17 11:36:05;;;;;;;8.45;3.50;;;;;;;27.82;41.72;98979.17;1638173;87;21418;-52
2021/06/17 11:38:35;;;;;;;6.12;3.30;;;;;;;27.89;43.13;98999.24;1675699;85;21582;-54
2021/06/17 11:41:19;;;;;;;6.17;3.62;;;;;;;27.77;42.88;99000.44;1679771;84;21550;-57
2021/06/17 11:43:54;;;;;;;8.98;4.37;;;;;;;27.65;44.50;98985.34;1660337;86;21094;-55
2021/06/17 11:46:30;;;;;;;10.68;4.28;;;;;;;27.61;44.29;98983.81;1691364;84;21550;-55
2021/06/17 11:49:05;;;;;;;7.15;3.33;;;;;;;27.58;43.38;98978.23;1660442;86;21028;-57
2021/06/17 11:51:46;;;;;;;6.03;3.50;;;;;;;27.55;43.56;98994.56;1660615;86;21039;-49
2021/06/17 11:54:22;;;;;;;7.50;4.03;;;;;;;27.59;43.63;98986.62;1643045;86;21167;-56
2021/06/17 11:56:54;;;;;;;4.92;3.52;;;;;;;27.56;43.36;98981.81;1663019;86;20645;-55
2021/06/17 11:59:27;;;;;;;7.95;3.83;;;;;;;27.49;43.87;98976.88;1673058;86;21079;-49
2021/06/17 12:02:18;;;;;;;7.03;3.80;;;;;;;27.51;42.68;98985.47;1673170;86;21536;-55
2021/06/17 12:05:04;;;;;;;5.42;3.45;;;;;;;27.44;42.42;98984.59;1673049;86;21085;-58
2021/06/17 12:07:36;;;;;;;6.55;3.70;;;;;;;27.35;42.79;98987.82;1672892;85;21099;-55
2021/06/17 12:10:24;;;;;;;6.58;3.50;;;;;;;27.34;41.24;98993.55;1673040;86;21098;-48
2021/06/17 12:13:00;;;;;;;6.65;3.17;;;;;;;27.34;42.38;98977.32;1672803;85;21036;-47
2021/06/17 12:15:29;;;;;;;5.97;3.30;;;;;;;27.44;42.14;98985.94;1671346;86;21059;-52
2021/06/17 12:18:00;;;;;;;7.00;3.70;;;;;;;27.48;43.29;98996.39;1671539;86;21078;-55
2021/06/17 12:20:36;;;;;;;10.55;4.20;;;;;;;27.53;43.01;98987.33;1671516;86;21581;-48
2021/06/17 12:23:12;;;;;;;7.78;3.65;;;;;;;27.58;42.10;98989.06;1666555;85;21553;-58
2021/06/17 12:26:05;;;;;;;4.67;3.65;;;;;;;27.51;42.39;98990.33;1633453;87;21036;-51
2021/06/17 12:28:52;;;;;;;6.87;3.40;;;;;;;27.45;42.46;98978.05;1631244;87;21029;-50
2021/06/17 12:31:36;;;;;;;5.55;3.42;;;;;;;27.47;43.48;98981.27;1680221;85;20981;-57
2021/06/17 12:34:15;;;;;;;7.50;3.70;;;;;;;27.50;42.58;98979.82;1689440;84;21022;-47
2021/06/17 12:36:44;;;;;;;7.05;3.95;;;;;;;27.45;42.62;98982.12;1673001;84;21094;-46
2021/06/17 12:39:18;;;;;;;4.53;3.83;;;;;;;27.42;42.54;98986.82;1662367;86;21039;-53
2021/06/17 12:41:48;;;;;;;4.50;3.50;;;;;;;27.37;43.63;98982.91;1672220;85;21653;-56
2021/06/17 12:44:40;;;;;;;6.67;3.55;;;;;;;27.35;43.79;98991.09;1663762;85;20995;-50
2021/06/17 12:47:19;;;;;;;6.35;3.60;;;;;;;27.21;42.96;99002.84;1672722;86;21074;-51
2021/06/17 12:52:34;;;;;;;6.97;3.52;;;;;;;27.15;44.51;99003.30;1672398;85;21019;-52
2021/06/17 12:55:03;;;;;;;6.20;3.30;;;;;;;27.21;44.17;98992.02;1641540;85;21005;-56
2021/06/17 12:57:32;;;;;;;5.62;3.47;;;;;;;27.29;43.70;99001.26;1671948;86;21031;-56
2021/06/17 13:00:15;;;;;;;8.00;3.42;;;;;;;27.31;43.41;98995.00;1672874;86;21041;-49
2021/06/17 13:02:50;;;;;;;9.43;3.80;;;;;;;27.32;44.33;99014.17;1669169;86;21042;-49
2021/06/17 13:05:18;;;;;;;9.90;3.60;;;;;;;27.45;44.54;99002.41;1663860;85;21063;-48
2021/06/17 13:08:11;;;;;;;6.53;3.75;;;;;;;27.58;44.12;98991.77;1663629;86;21054;-49
2021/06/17 13:10:50;;;;;;;4.85;3.40;;;;;;;27.59;42.81;98997.45;1663648;86;21107;-54
2021/06/17 13:13:27;;;;;;;7.15;3.70;;;;;;;27.45;43.63;98990.23;1663551;86;21022;-50
2021/06/17 13:15:56;;;;;;;8.83;4.03;;;;;;;27.39;44.03;98999.62;1662871;86;21462;-48
2021/06/17 13:18:26;;;;;;;9.55;3.70;;;;;;;27.37;44.98;98982.11;1662609;86;21092;-46
2021/06/17 13:20:59;;;;;;;7.08;3.50;;;;;;;27.43;43.12;98983.55;1662557;85;21475;-52
2021/06/17 13:23:39;;;;;;;6.45;3.70;;;;;;;27.39;43.49;98989.35;1662076;86;21037;-53
2021/06/17 13:26:11;;;;;;;6.62;3.72;;;;;;;27.34;43.61;98986.79;1662201;86;21136;-54
2021/06/17 13:28:49;;;;;;;7.37;3.67;;;;;;;27.34;43.87;98983.52;1662062;86;21036;-53
2021/06/17 13:31:27;;;;;;;3.65;3.35;;;;;;;27.37;43.35;98976.14;1662132;86;21485;-47
2021/06/17 13:33:54;;;;;;;6.37;3.50;;;;;;;27.35;43.39;98986.47;1662068;86;21037;-49
2021/06/17 13:36:23;;;;;;;7.10;3.80;;;;;;;27.34;43.96;98965.94;1666304;85;21133;-55
2021/06/17 13:38:52;;;;;;;9.90;3.80;;;;;;;27.36;43.83;98988.09;1674478;85;21115;-55
2021/06/17 13:41:19;;;;;;;4.55;3.33;;;;;;;27.23;42.98;98968.14;1669194;85;21010;-52
2021/06/17 13:43:47;;;;;;;8.78;3.65;;;;;;;27.10;43.92;98967.71;1650968;85;21248;-47
2021/06/17 13:46:14;;;;;;;6.72;4.20;;;;;;;27.10;44.37;98964.20;1673165;85;21120;-52
2021/06/17 13:48:43;;;;;;;7.67;3.60;;;;;;;27.16;43.62;98972.42;1624309;87;21109;-55
2021/06/17 13:51:11;;;;;;;4.95;3.47;;;;;;;27.18;43.19;98960.72;1653323;85;21497;-52
2021/06/17 13:53:39;;;;;;;6.95;3.58;;;;;;;27.18;43.21;98956.13;1669763;85;21067;-58
2021/06/17 13:56:06;;;;;;;9.10;3.70;;;;;;;27.15;43.01;98972.19;1657229;86;21095;-50
